Time;durP1;ratioP1;P1;durP2;ratioP2;P2;SDS_P1;SDS_P2;PMS_P1;PMS_P2;Temp;Humidity;BMP_temperature;BMP_pressure;BME280_temperature;BME280_humidity;BME280_pressure;Samples;Min_cycle;Max_cycle;Signal;HPM_P1;HPM_P2
2023/03/31 00:02:23;;;;;;;5.50;1.70;;;;;;;17.44;59.66;99942.09;20732540;28;20046;-85
2023/03/31 00:12:25;;;;;;;4.43;1.60;;;;;;;17.24;59.41;99887.63;20755537;28;20084;-85
2023/03/31 00:22:27;;;;;;;5.05;1.85;;;;;;;17.48;59.56;99900.41;20741424;28;20042;-85
2023/03/31 00:32:28;;;;;;;3.85;1.88;;;;;;;17.39;59.54;99871.75;20740498;28;20564;-85
2023/03/31 00:42:30;;;;;;;5.05;1.80;;;;;;;17.34;59.34;99857.94;20744634;28;20085;-85
2023/03/31 00:52:37;;;;;;;5.40;1.83;;;;;;;17.34;59.16;99821.09;20754084;28;20410;-85
2023/03/31 01:02:40;;;;;;;3.72;1.67;;;;;;;17.47;59.32;99842.22;20751820;28;20084;-85
2023/03/31 01:12:45;;;;;;;5.40;1.55;;;;;;;17.38;59.07;99810.88;20754877;28;20459;-85
2023/03/31 01:23:08;;;;;;;3.47;1.20;;;;;;;17.47;59.00;99812.63;20754579;28;20074;-85
2023/03/31 01:33:18;;;;;;;2.80;1.17;;;;;;;17.46;58.98;99794.78;20750738;28;20052;-85
2023/03/31 01:43:36;;;;;;;3.92;1.60;;;;;;;17.41;58.83;99778.28;20752931;28;20050;-86
2023/03/31 01:53:59;;;;;;;4.35;1.75;;;;;;;17.29;58.79;99752.66;20749312;28;20038;-85
2023/03/31 02:04:06;;;;;;;3.40;1.20;;;;;;;17.44;59.04;99740.28;20756676;28;20137;-85
2023/03/31 02:14:11;;;;;;;3.92;1.25;;;;;;;17.39;58.88;99724.63;20747455;28;20042;-85
2023/03/31 02:24:13;;;;;;;4.07;1.40;;;;;;;17.44;58.94;99710.69;20746085;28;20065;-85
2023/03/31 02:34:15;;;;;;;4.07;1.38;;;;;;;17.41;59.05;99686.81;20745345;28;20054;-85
2023/03/31 02:44:17;;;;;;;3.80;1.38;;;;;;;17.32;59.01;99666.25;20728665;28;20113;-85
2023/03/31 02:54:27;;;;;;;3.35;1.38;;;;;;;17.41;59.00;99649.13;20744120;28;20042;-84
2023/03/31 03:04:33;;;;;;;4.22;1.30;;;;;;;17.44;59.22;99629.97;20744254;28;20057;-85
2023/03/31 03:14:46;;;;;;;3.72;1.20;;;;;;;17.41;59.10;99603.41;20743279;28;20072;-85
2023/03/31 03:24:48;;;;;;;3.70;1.40;;;;;;;17.30;58.96;99574.97;20758251;28;20081;-85
2023/03/31 03:34:49;;;;;;;3.42;1.67;;;;;;;17.34;59.34;99556.66;20727370;28;20053;-85
2023/03/31 03:44:51;;;;;;;3.80;1.30;;;;;;;17.32;59.35;99523.69;20740588;28;20141;-85
2023/03/31 03:54:53;;;;;;;3.22;1.23;;;;;;;17.43;59.31;99531.44;20740422;28;20049;-85
2023/03/31 04:04:55;;;;;;;2.53;0.95;;;;;;;17.43;59.36;99507.22;20741849;28;20064;-85
2023/03/31 04:14:56;;;;;;;2.83;1.40;;;;;;;17.43;59.64;99488.41;20755477;28;20041;-85
2023/03/31 04:24:58;;;;;;;2.13;1.02;;;;;;;17.08;59.55;99417.78;20763300;28;20050;-85
2023/03/31 04:35:01;;;;;;;2.40;0.90;;;;;;;17.43;59.75;99450.72;20765501;28;20499;-85
2023/03/31 04:45:03;;;;;;;2.25;0.88;;;;;;;17.40;59.75;99426.84;20767418;28;20121;-85
2023/03/31 04:55:05;;;;;;;2.13;0.80;;;;;;;17.10;59.81;99375.41;20763552;28;20513;-85
2023/03/31 05:05:08;;;;;;;2.08;1.00;;;;;;;17.42;59.93;99405.16;20763155;28;20045;-85
2023/03/31 05:15:09;;;;;;;1.98;0.85;;;;;;;17.39;59.92;99374.88;20754091;28;20042;-85
2023/03/31 05:25:17;;;;;;;1.88;0.70;;;;;;;17.37;60.22;99362.63;20755451;28;20045;-85
2023/03/31 05:35:19;;;;;;;1.58;0.70;;;;;;;17.42;60.11;99348.66;20756689;28;20139;-85
2023/03/31 05:45:21;;;;;;;1.42;0.70;;;;;;;17.42;60.19;99333.38;20755488;28;20046;-84
2023/03/31 05:55:22;;;;;;;2.00;1.08;;;;;;;17.38;60.21;99308.66;20791079;28;20092;-85
2023/03/31 06:05:29;;;;;;;2.25;0.80;;;;;;;17.34;60.12;99284.97;20747061;28;20049;-85
2023/03/31 06:15:31;;;;;;;2.60;0.70;;;;;;;17.42;60.48;99268.81;20752163;28;20109;-85
2023/03/31 06:25:36;;;;;;;2.83;0.77;;;;;;;17.30;60.52;99237.91;20751812;28;20072;-85
2023/03/31 06:35:55;;;;;;;0.98;0.47;;;;;;;17.42;60.56;99244.59;20748059;28;20038;-85
2023/03/31 06:45:57;;;;;;;1.42;0.75;;;;;;;17.41;60.57;99216.00;20734066;28;20053;-83
2023/03/31 06:55:59;;;;;;;1.40;0.70;;;;;;;17.56;62.68;99196.44;20749178;28;20046;-83
2023/03/31 07:06:00;;;;;;;1.15;0.63;;;;;;;17.50;64.04;99153.09;20724317;28;20048;-85
2023/03/31 07:16:03;;;;;;;3.15;0.95;;;;;;;17.60;63.93;99169.00;20716137;28;20411;-81
2023/03/31 07:26:06;;;;;;;1.58;0.60;;;;;;;17.57;63.93;99160.44;20714586;28;20125;-85
2023/03/31 07:36:09;;;;;;;1.45;0.80;;;;;;;17.49;63.91;99151.41;20724282;28;20081;-83
2023/03/31 07:46:25;;;;;;;1.88;0.63;;;;;;;17.56;64.80;99142.63;20722587;28;20376;-83
2023/03/31 07:56:27;;;;;;;1.88;0.93;;;;;;;17.59;64.30;99136.88;20747790;28;20046;-88
2023/03/31 08:06:29;;;;;;;2.28;0.80;;;;;;;17.59;63.82;99115.34;20714940;28;20068;-86
2023/03/31 08:16:31;;;;;;;1.80;0.70;;;;;;;17.50;63.87;99091.19;20773306;28;20038;-88
2023/03/31 08:26:33;;;;;;;2.75;1.13;;;;;;;17.53;63.97;99090.84;20771383;28;20045;-88
2023/03/31 08:36:36;;;;;;;1.98;0.77;;;;;;;17.63;63.83;99098.69;20771934;28;20510;-88
2023/03/31 08:46:38;;;;;;;3.35;0.80;;;;;;;17.64;63.69;99091.44;20775828;28;20062;-88
2023/03/31 08:56:42;;;;;;;1.33;0.80;;;;;;;17.66;63.74;99078.66;20778208;28;20049;-87
2023/03/31 09:06:53;;;;;;;1.43;0.60;;;;;;;17.67;63.70;99080.31;20763550;28;20077;-88
2023/03/31 09:17:17;;;;;;;1.45;0.77;;;;;;;17.67;63.60;99073.09;20747112;28;20495;-87
2023/03/31 09:27:20;;;;;;;1.35;0.70;;;;;;;17.68;63.38;99061.31;20730215;28;20046;-87
2023/03/31 09:37:22;;;;;;;2.50;0.90;;;;;;;17.69;63.39;99057.59;20731132;28;20053;-93
2023/03/31 09:47:38;;;;;;;1.15;0.60;;;;;;;17.71;63.31;99052.06;20739211;28;20050;-90
2023/03/31 09:57:40;;;;;;;0.80;0.50;;;;;;;17.72;63.09;99051.03;20742235;28;20505;-86
2023/03/31 10:07:42;;;;;;;1.98;0.77;;;;;;;17.57;62.86;99024.06;20750159;28;20041;-85
2023/03/31 10:17:45;;;;;;;1.95;0.65;;;;;;;17.73;62.61;99036.56;20734632;28;20076;-85
2023/03/31 10:27:56;;;;;;;0.52;0.38;;;;;;;17.75;62.60;99034.53;20757052;28;20049;-85
2023/03/31 10:38:05;;;;;;;1.40;0.60;;;;;;;17.65;62.62;99013.25;20728336;28;20122;-84
2023/03/31 10:48:26;;;;;;;0.98;0.60;;;;;;;17.79;62.72;99035.84;20731358;28;20085;-88
2023/03/31 10:58:38;;;;;;;1.05;0.77;;;;;;;17.78;62.72;99025.25;20734954;28;20049;-86
2023/03/31 11:08:55;;;;;;;0.65;0.40;;;;;;;17.77;62.83;99016.34;20732464;28;20056;-84
2023/03/31 11:19:26;;;;;;;1.48;0.50;;;;;;;17.77;62.70;99016.34;20727657;28;20060;-84
2023/03/31 11:29:45;;;;;;;1.33;0.43;;;;;;;17.78;62.70;99012.63;20698629;28;20061;-85
2023/03/31 11:39:53;;;;;;;0.75;0.40;;;;;;;17.79;62.69;99006.22;20733976;28;20068;-82
2023/03/31 11:49:58;;;;;;;0.40;0.40;;;;;;;17.79;62.70;98998.16;20715813;28;20054;-82
2023/03/31 12:00:21;;;;;;;0.90;0.40;;;;;;;17.85;63.94;98977.72;20718296;28;20503;-85
2023/03/31 12:10:50;;;;;;;1.90;0.55;;;;;;;17.85;64.85;98972.34;20716043;28;20054;-86
2023/03/31 12:20:55;;;;;;;1.15;0.73;;;;;;;17.80;65.68;98969.38;20704582;28;20350;-86
2023/03/31 12:30:59;;;;;;;1.00;0.50;;;;;;;17.76;66.17;98958.16;20716267;28;20061;-91
2023/03/31 12:41:15;;;;;;;1.03;0.57;;;;;;;17.75;66.38;98943.03;20761051;28;20037;-86
2023/03/31 12:51:53;;;;;;;1.45;0.82;;;;;;;17.75;66.62;98932.25;20763100;28;20121;-83
2023/03/31 13:02:16;;;;;;;1.20;0.80;;;;;;;17.73;67.16;98920.84;20714179;28;20065;-87
2023/03/31 13:12:20;;;;;;;2.13;0.95;;;;;;;17.69;67.49;98906.91;20752006;28;20549;-88
2023/03/31 13:22:36;;;;;;;1.87;0.70;;;;;;;17.72;67.65;98910.25;20724765;28;20037;-91
2023/03/31 13:32:39;;;;;;;1.90;0.65;;;;;;;17.71;67.32;98906.72;20747288;28;20494;-93
2023/03/31 13:42:53;;;;;;;1.65;0.70;;;;;;;17.70;67.87;98886.22;20771492;28;20056;-92
2023/03/31 13:53:16;;;;;;;1.70;0.80;;;;;;;17.68;67.73;98899.03;20756240;28;20371;-92
2023/03/31 14:03:48;;;;;;;1.25;0.73;;;;;;;17.68;67.78;98907.09;20677938;28;20042;-92
2023/03/31 14:14:11;;;;;;;1.92;0.73;;;;;;;17.68;67.69;98916.00;20688805;28;20050;-92
2023/03/31 14:24:21;;;;;;;1.63;0.60;;;;;;;17.67;67.69;98900.03;20731356;28;20049;-93
2023/03/31 14:34:24;;;;;;;1.73;0.70;;;;;;;17.68;67.61;98899.03;20734399;28;20048;-92
2023/03/31 14:44:26;;;;;;;1.60;0.70;;;;;;;17.68;67.57;98888.25;20765836;28;20050;-93
2023/03/31 14:54:33;;;;;;;2.35;0.82;;;;;;;17.60;67.62;98877.56;20767149;28;20113;-90
2023/03/31 15:04:45;;;;;;;1.23;0.80;;;;;;;17.65;67.56;98876.00;20750440;28;20056;-92
2023/03/31 15:14:50;;;;;;;1.08;0.70;;;;;;;17.58;67.58;98858.06;20749113;28;20070;-91
2023/03/31 15:24:52;;;;;;;2.93;1.07;;;;;;;17.66;67.32;98849.91;20749735;28;20046;-93
2023/03/31 15:34:54;;;;;;;2.35;0.80;;;;;;;17.56;67.66;98825.16;20747651;28;20053;-93
2023/03/31 15:45:19;;;;;;;1.92;0.80;;;;;;;17.64;67.46;98823.22;20744690;28;20133;-92
2023/03/31 15:55:41;;;;;;;1.67;0.75;;;;;;;17.65;67.35;98824.03;20747386;28;20052;-92
2023/03/31 16:05:56;;;;;;;3.55;1.13;;;;;;;17.62;67.45;98819.00;20744711;28;20138;-91
2023/03/31 16:15:59;;;;;;;1.45;0.75;;;;;;;17.62;67.44;98816.31;20743791;28;20042;-92
2023/03/31 16:26:01;;;;;;;1.70;0.70;;;;;;;17.61;67.38;98811.97;20744971;28;20406;-92
2023/03/31 16:36:03;;;;;;;1.25;0.57;;;;;;;17.59;67.32;98819.38;20743624;28;20406;-92
2023/03/31 16:46:05;;;;;;;2.33;0.90;;;;;;;17.58;67.09;98807.81;20744434;28;20049;-93
2023/03/31 16:56:08;;;;;;;0.85;0.80;;;;;;;17.53;66.99;98799.47;20742826;28;20042;-91
2023/03/31 17:06:11;;;;;;;1.58;0.65;;;;;;;17.58;66.84;98806.97;20741028;28;20049;-91
2023/03/31 17:16:13;;;;;;;1.25;0.73;;;;;;;17.56;66.95;98812.53;20742311;28;20108;-92
2023/03/31 17:26:27;;;;;;;1.30;0.50;;;;;;;17.45;66.75;98792.31;20756883;28;20052;-92
2023/03/31 17:36:29;;;;;;;0.75;0.50;;;;;;;17.57;66.71;98819.59;20756724;28;20042;-92
2023/03/31 17:46:32;;;;;;;2.08;0.98;;;;;;;17.57;66.68;98821.44;20755241;28;20100;-93
2023/03/31 17:56:34;;;;;;;1.38;0.65;;;;;;;17.56;66.60;98819.75;20755149;28;20049;-93
2023/03/31 18:06:36;;;;;;;1.80;0.88;;;;;;;17.52;66.50;98816.63;20754124;28;20495;-92
2023/03/31 18:16:37;;;;;;;0.82;0.60;;;;;;;17.42;66.34;98807.97;20752694;28;20050;-91
2023/03/31 18:26:40;;;;;;;1.58;0.85;;;;;;;17.44;65.92;98817.53;20750621;28;20052;-92
2023/03/31 18:36:42;;;;;;;1.65;0.60;;;;;;;17.30;65.91;98788.78;20751469;28;20125;-92
2023/03/31 18:46:44;;;;;;;1.55;0.68;;;;;;;17.46;65.95;98826.25;20751927;28;20072;-91
2023/03/31 18:56:46;;;;;;;0.80;0.32;;;;;;;17.46;65.84;98838.88;20750354;28;20125;-92
2023/03/31 19:06:48;;;;;;;0.82;0.60;;;;;;;17.52;65.67;98838.97;20749452;28;20136;-92
2023/03/31 19:16:50;;;;;;;1.30;0.60;;;;;;;17.52;65.78;98843.53;20749943;28;20068;-92
2023/03/31 19:26:52;;;;;;;0.50;0.40;;;;;;;17.43;65.58;98832.00;20746992;28;20494;-92
2023/03/31 19:36:54;;;;;;;0.82;0.50;;;;;;;17.17;65.37;98784.84;20747637;28;20056;-91
2023/03/31 19:46:57;;;;;;;0.95;0.47;;;;;;;17.44;65.53;98833.69;20746296;28;20506;-91
2023/03/31 19:56:59;;;;;;;1.27;0.60;;;;;;;17.35;65.34;98818.66;20744478;28;20096;-92
2023/03/31 20:07:01;;;;;;;1.02;0.50;;;;;;;17.49;65.26;98833.13;20745211;28;20050;-91
2023/03/31 20:17:03;;;;;;;0.60;0.30;;;;;;;17.49;65.28;98830.44;20745514;28;20391;-92
2023/03/31 20:27:05;;;;;;;0.80;0.47;;;;;;;17.34;65.20;98806.22;20744551;28;20053;-92
2023/03/31 20:37:07;;;;;;;0.60;0.40;;;;;;;17.44;64.95;98817.53;20745240;28;20046;-91
2023/03/31 20:47:08;;;;;;;0.90;0.40;;;;;;;17.48;65.10;98828.78;20743590;28;20065;-92
2023/03/31 20:57:10;;;;;;;1.55;0.38;;;;;;;17.36;64.96;98815.75;20748408;28;20070;-92
2023/03/31 21:07:12;;;;;;;2.03;0.98;;;;;;;17.46;64.78;98818.19;20755862;28;20572;-85
2023/03/31 21:17:14;;;;;;;0.63;0.43;;;;;;;17.47;64.84;98827.09;20757091;28;20227;-86
2023/03/31 21:27:16;;;;;;;0.82;0.35;;;;;;;17.47;64.90;98822.53;20755711;28;20045;-86
2023/03/31 21:37:17;;;;;;;0.70;0.43;;;;;;;17.48;64.87;98823.41;20752506;28;20048;-87
2023/03/31 21:47:19;;;;;;;0.45;0.30;;;;;;;17.46;64.98;98826.25;20751577;28;20065;-87
2023/03/31 21:57:21;;;;;;;0.93;0.60;;;;;;;17.46;64.82;98826.25;20740030;28;20038;-86
2023/03/31 22:07:23;;;;;;;0.63;0.40;;;;;;;17.45;64.71;98834.50;20744956;28;20046;-87
2023/03/31 22:17:25;;;;;;;0.40;0.40;;;;;;;17.32;64.79;98808.25;20749681;28;20041;-86
2023/03/31 22:27:27;;;;;;;0.40;0.40;;;;;;;17.32;64.68;98811.75;20735516;28;20565;-86
2023/03/31 22:37:29;;;;;;;0.75;0.40;;;;;;;17.45;64.89;98821.91;20747333;28;20042;-87
2023/03/31 22:47:31;;;;;;;0.50;0.38;;;;;;;17.45;64.86;98823.72;20734005;28;20046;-86
2023/03/31 22:57:33;;;;;;;0.77;0.60;;;;;;;17.45;64.83;98827.28;20745249;28;20048;-86
2023/03/31 23:07:35;;;;;;;1.13;0.55;;;;;;;17.45;64.82;98834.50;20746872;28;20057;-86
2023/03/31 23:17:36;;;;;;;0.45;0.40;;;;;;;17.45;64.67;98831.81;20744276;28;20046;-86
2023/03/31 23:27:39;;;;;;;0.70;0.40;;;;;;;17.45;64.59;98834.50;20744930;28;20429;-86
2023/03/31 23:37:40;;;;;;;1.05;0.40;;;;;;;17.40;64.72;98816.25;20743676;28;20045;-87
2023/03/31 23:47:42;;;;;;;0.85;0.50;;;;;;;17.10;64.50;98774.00;20743384;28;20068;-86
2023/03/31 23:57:44;;;;;;;1.08;0.60;;;;;;;17.45;64.56;98827.28;20741539;28;20363;-86
